Virtual Norwegian Aeroclub

Virtual Norwegian Aeroclub! A new look to our va.




 METAR AND TAF INFORMATION
METAR FOR ENBV
ADDS - METARS form results

(1111 UTC 20 June 2019)
Data provider http://aviationweather.gov/metar/data/
 
Forecast for: ENBV (BERLEVAG , NO)
Text: TAF ENBV 200800Z 2009/2018 28012KT 9999 BKN020 BKN040
Forecast period: 0900 to 1800 UTC 20 June 2019
Forecast type: FROM: standard forecast or significant change
Winds: from the W (280 degrees) at 14 MPH (12 knots; 6.2 m/s)
Visibility: 6 or more miles 10+ km)
Ceiling: 2000 feet AGL
Clouds: broken clouds at 2000 feet AGL
broken clouds at 4000 feet AGL
Weather: no significant weather forecast for this period

 AIRPORT MAP

 RUNWAY INFORMATION
Runway 06 Runway length 3372 ft Runway width 98 ft
Runway elevation 42 ft Runway displaced threshold 0 ft Runway heading 0
Runway 24 Runway length 3372 ft Runway width 98 ft
Runway elevation 28 ft Runway displaced threshold 0 ft Runway heading 0

 AIRPORT FREQUENCIES

 AIRPORT NEAR NAVIGATION AIDS
Type NDB Name Berlevag Frequency 399 KHZ